Richland, Indiana
Current Conditions -  °F | °C
As of 6:56 AM on Thursday 27 Nov 2014 (Local Time) from KOWB Reporting Station
Overcast Overcast  
Wind Chill: 22°   Ceiling: 1200
Heat Index: 32°   Visibility: 8mi
Dew Point: 29°   Wind: 14mph
Humidity: 89%   Direction: 350°N
Pressure: 30.3"   Gusts: NA
Location:  37.95°N, 87.17°W
Report Text: KOWB 271156Z 35012KT 8SM BKN012 OVC045 00/M02 A3030 RMK AO2 51034 60002 70017 T00001016 10005 20000 UPB40E45SNE40 P0000 SLP263
Loading
Personal Weather Stations






























Interactive Weather Map New forecast layout! Learn more

10-Day Weather Forecast

Advertisements
Track Severe Weather on mobile